sensor_id;sensor_type;location;lat;lon;timestamp;P1;durP1;ratioP1;P2;durP2;ratioP2
58992;SDS011;44782;0.000;0.000;2024-03-25T00:02:01;4.70;;;3.43;;
58992;SDS011;44782;0.000;0.000;2024-03-25T00:04:17;4.10;;;3.07;;
58992;SDS011;44782;0.000;0.000;2024-03-25T00:06:32;3.70;;;2.97;;
58992;SDS011;44782;0.000;0.000;2024-03-25T00:08:49;4.10;;;3.13;;
58992;SDS011;44782;0.000;0.000;2024-03-25T00:11:04;4.10;;;3.17;;
58992;SDS011;44782;0.000;0.000;2024-03-25T00:13:20;3.47;;;3.17;;
58992;SDS011;44782;0.000;0.000;2024-03-25T00:15:36;3.20;;;2.90;;
58992;SDS011;44782;0.000;0.000;2024-03-25T00:17:52;4.17;;;3.10;;
58992;SDS011;44782;0.000;0.000;2024-03-25T00:20:08;3.30;;;3.00;;
58992;SDS011;44782;0.000;0.000;2024-03-25T00:22:24;3.70;;;3.00;;
58992;SDS011;44782;0.000;0.000;2024-03-25T00:24:40;4.80;;;3.40;;
58992;SDS011;44782;0.000;0.000;2024-03-25T00:26:56;3.40;;;3.10;;
58992;SDS011;44782;0.000;0.000;2024-03-25T00:29:11;3.13;;;2.83;;
58992;SDS011;44782;0.000;0.000;2024-03-25T00:31:27;3.30;;;3.00;;
58992;SDS011;44782;0.000;0.000;2024-03-25T00:33:43;3.50;;;3.20;;
58992;SDS011;44782;0.000;0.000;2024-03-25T00:35:59;3.17;;;2.80;;
58992;SDS011;44782;0.000;0.000;2024-03-25T00:38:15;3.20;;;2.90;;
58992;SDS011;44782;0.000;0.000;2024-03-25T00:40:30;3.87;;;2.90;;
58992;SDS011;44782;0.000;0.000;2024-03-25T00:42:46;3.43;;;3.13;;
58992;SDS011;44782;0.000;0.000;2024-03-25T00:45:02;3.53;;;3.00;;
58992;SDS011;44782;0.000;0.000;2024-03-25T00:47:20;3.13;;;2.80;;
58992;SDS011;44782;0.000;0.000;2024-03-25T00:49:37;3.23;;;2.80;;
58992;SDS011;44782;0.000;0.000;2024-03-25T00:51:52;3.30;;;2.90;;
58992;SDS011;44782;0.000;0.000;2024-03-25T00:54:08;3.38;;;3.00;;
58992;SDS011;44782;0.000;0.000;2024-03-25T00:56:24;3.30;;;2.97;;
58992;SDS011;44782;0.000;0.000;2024-03-25T00:58:39;3.53;;;2.73;;
58992;SDS011;44782;0.000;0.000;2024-03-25T01:00:55;2.80;;;2.60;;
58992;SDS011;44782;0.000;0.000;2024-03-25T01:03:11;3.00;;;2.70;;
58992;SDS011;44782;0.000;0.000;2024-03-25T01:05:26;2.90;;;2.60;;
58992;SDS011;44782;0.000;0.000;2024-03-25T01:07:42;3.17;;;2.70;;
58992;SDS011;44782;0.000;0.000;2024-03-25T01:09:59;3.03;;;2.73;;
58992;SDS011;44782;0.000;0.000;2024-03-25T01:12:14;3.93;;;2.80;;
58992;SDS011;44782;0.000;0.000;2024-03-25T01:14:30;3.40;;;2.80;;
58992;SDS011;44782;0.000;0.000;2024-03-25T01:16:46;3.00;;;2.70;;
58992;SDS011;44782;0.000;0.000;2024-03-25T01:19:02;2.87;;;2.60;;
58992;SDS011;44782;0.000;0.000;2024-03-25T01:21:18;3.70;;;2.73;;
58992;SDS011;44782;0.000;0.000;2024-03-25T01:23:34;3.10;;;2.60;;
58992;SDS011;44782;0.000;0.000;2024-03-25T01:25:50;3.00;;;2.70;;
58992;SDS011;44782;0.000;0.000;2024-03-25T01:28:05;3.40;;;2.60;;
58992;SDS011;44782;0.000;0.000;2024-03-25T01:30:21;2.53;;;2.33;;
58992;SDS011;44782;0.000;0.000;2024-03-25T01:32:37;2.90;;;2.60;;
58992;SDS011;44782;0.000;0.000;2024-03-25T01:34:53;2.70;;;2.50;;
58992;SDS011;44782;0.000;0.000;2024-03-25T01:37:09;2.93;;;2.67;;
58992;SDS011;44782;0.000;0.000;2024-03-25T01:39:24;2.60;;;2.40;;
58992;SDS011;44782;0.000;0.000;2024-03-25T01:41:40;2.90;;;2.70;;
58992;SDS011;44782;0.000;0.000;2024-03-25T01:43:56;2.73;;;2.53;;
58992;SDS011;44782;0.000;0.000;2024-03-25T01:46:11;2.80;;;2.60;;
58992;SDS011;44782;0.000;0.000;2024-03-25T01:48:27;2.97;;;2.73;;
58992;SDS011;44782;0.000;0.000;2024-03-25T01:50:43;2.73;;;2.53;;
58992;SDS011;44782;0.000;0.000;2024-03-25T01:53:00;2.60;;;2.40;;
58992;SDS011;44782;0.000;0.000;2024-03-25T01:55:18;2.80;;;2.60;;
58992;SDS011;44782;0.000;0.000;2024-03-25T01:57:40;3.10;;;2.80;;
58992;SDS011;44782;0.000;0.000;2024-03-25T01:59:56;2.90;;;2.50;;
58992;SDS011;44782;0.000;0.000;2024-03-25T02:02:12;2.43;;;2.23;;
58992;SDS011;44782;0.000;0.000;2024-03-25T02:04:28;2.67;;;2.20;;
58992;SDS011;44782;0.000;0.000;2024-03-25T02:06:44;2.60;;;2.40;;
58992;SDS011;44782;0.000;0.000;2024-03-25T02:09:01;2.60;;;2.40;;
58992;SDS011;44782;0.000;0.000;2024-03-25T02:11:18;2.60;;;2.40;;
58992;SDS011;44782;0.000;0.000;2024-03-25T02:13:35;2.90;;;2.60;;
58992;SDS011;44782;0.000;0.000;2024-03-25T02:15:51;2.57;;;2.30;;
58992;SDS011;44782;0.000;0.000;2024-03-25T02:18:08;2.57;;;2.33;;
58992;SDS011;44782;0.000;0.000;2024-03-25T02:20:23;2.80;;;2.60;;
58992;SDS011;44782;0.000;0.000;2024-03-25T02:22:39;2.83;;;2.57;;
58992;SDS011;44782;0.000;0.000;2024-03-25T02:24:55;2.73;;;2.33;;
58992;SDS011;44782;0.000;0.000;2024-03-25T02:27:12;2.60;;;2.40;;
58992;SDS011;44782;0.000;0.000;2024-03-25T02:29:34;2.60;;;2.20;;
58992;SDS011;44782;0.000;0.000;2024-03-25T02:31:50;2.87;;;2.60;;
58992;SDS011;44782;0.000;0.000;2024-03-25T02:34:08;2.30;;;2.10;;
58992;SDS011;44782;0.000;0.000;2024-03-25T02:36:23;2.40;;;2.20;;
58992;SDS011;44782;0.000;0.000;2024-03-25T02:38:39;2.80;;;2.60;;
58992;SDS011;44782;0.000;0.000;2024-03-25T02:40:55;2.40;;;2.23;;
58992;SDS011;44782;0.000;0.000;2024-03-25T02:43:11;2.83;;;2.57;;
58992;SDS011;44782;0.000;0.000;2024-03-25T02:45:28;2.50;;;2.30;;
58992;SDS011;44782;0.000;0.000;2024-03-25T02:47:45;3.00;;;2.50;;
58992;SDS011;44782;0.000;0.000;2024-03-25T02:50:01;2.67;;;2.47;;
58992;SDS011;44782;0.000;0.000;2024-03-25T02:52:18;2.97;;;2.50;;
58992;SDS011;44782;0.000;0.000;2024-03-25T02:54:34;2.67;;;2.47;;
58992;SDS011;44782;0.000;0.000;2024-03-25T02:56:50;2.60;;;2.40;;
58992;SDS011;44782;0.000;0.000;2024-03-25T02:59:06;2.70;;;2.50;;
58992;SDS011;44782;0.000;0.000;2024-03-25T03:01:22;2.80;;;2.60;;
58992;SDS011;44782;0.000;0.000;2024-03-25T03:03:37;2.30;;;2.10;;
58992;SDS011;44782;0.000;0.000;2024-03-25T03:05:53;2.50;;;2.30;;
58992;SDS011;44782;0.000;0.000;2024-03-25T03:08:09;2.67;;;2.47;;
58992;SDS011;44782;0.000;0.000;2024-03-25T03:10:25;2.57;;;2.37;;
58992;SDS011;44782;0.000;0.000;2024-03-25T03:12:40;2.70;;;2.50;;
58992;SDS011;44782;0.000;0.000;2024-03-25T03:14:56;2.40;;;2.20;;
58992;SDS011;44782;0.000;0.000;2024-03-25T03:17:12;2.50;;;2.30;;
58992;SDS011;44782;0.000;0.000;2024-03-25T03:19:28;2.73;;;2.50;;
58992;SDS011;44782;0.000;0.000;2024-03-25T03:21:44;2.50;;;2.30;;
58992;SDS011;44782;0.000;0.000;2024-03-25T03:24:00;2.60;;;2.40;;
58992;SDS011;44782;0.000;0.000;2024-03-25T03:26:16;2.50;;;2.30;;
58992;SDS011;44782;0.000;0.000;2024-03-25T03:28:31;2.50;;;2.30;;
58992;SDS011;44782;0.000;0.000;2024-03-25T03:30:47;2.10;;;2.00;;
58992;SDS011;44782;0.000;0.000;2024-03-25T03:33:03;2.40;;;2.20;;
58992;SDS011;44782;0.000;0.000;2024-03-25T03:35:19;2.43;;;2.23;;
58992;SDS011;44782;0.000;0.000;2024-03-25T03:37:35;2.43;;;2.23;;
58992;SDS011;44782;0.000;0.000;2024-03-25T03:39:51;2.30;;;2.10;;
58992;SDS011;44782;0.000;0.000;2024-03-25T03:42:06;2.20;;;2.00;;
58992;SDS011;44782;0.000;0.000;2024-03-25T03:44:22;2.27;;;2.07;;
58992;SDS011;44782;0.000;0.000;2024-03-25T03:46:38;2.00;;;1.90;;
58992;SDS011;44782;0.000;0.000;2024-03-25T03:48:53;2.13;;;2.03;;
58992;SDS011;44782;0.000;0.000;2024-03-25T03:51:09;1.90;;;1.80;;
58992;SDS011;44782;0.000;0.000;2024-03-25T03:53:25;1.90;;;1.80;;
58992;SDS011;44782;0.000;0.000;2024-03-25T03:55:40;1.90;;;1.80;;
58992;SDS011;44782;0.000;0.000;2024-03-25T03:57:56;1.93;;;1.83;;
58992;SDS011;44782;0.000;0.000;2024-03-25T04:00:12;1.83;;;1.73;;
58992;SDS011;44782;0.000;0.000;2024-03-25T04:02:29;1.93;;;1.83;;
58992;SDS011;44782;0.000;0.000;2024-03-25T04:04:44;1.93;;;1.83;;
58992;SDS011;44782;0.000;0.000;2024-03-25T04:07:01;1.90;;;1.80;;
58992;SDS011;44782;0.000;0.000;2024-03-25T04:09:17;2.13;;;1.63;;
58992;SDS011;44782;0.000;0.000;2024-03-25T04:11:35;1.70;;;1.60;;
58992;SDS011;44782;0.000;0.000;2024-03-25T04:13:51;1.77;;;1.67;;
58992;SDS011;44782;0.000;0.000;2024-03-25T04:16:07;1.90;;;1.80;;
58992;SDS011;44782;0.000;0.000;2024-03-25T04:18:23;2.10;;;2.00;;
58992;SDS011;44782;0.000;0.000;2024-03-25T04:20:39;1.77;;;1.67;;
58992;SDS011;44782;0.000;0.000;2024-03-25T04:22:55;1.87;;;1.77;;
58992;SDS011;44782;0.000;0.000;2024-03-25T04:25:11;2.20;;;2.00;;
58992;SDS011;44782;0.000;0.000;2024-03-25T04:27:29;1.90;;;1.80;;
58992;SDS011;44782;0.000;0.000;2024-03-25T04:29:44;2.20;;;2.00;;
58992;SDS011;44782;0.000;0.000;2024-03-25T04:32:00;2.00;;;1.90;;
58992;SDS011;44782;0.000;0.000;2024-03-25T04:34:17;2.30;;;2.20;;
58992;SDS011;44782;0.000;0.000;2024-03-25T04:36:32;2.30;;;2.10;;
58992;SDS011;44782;0.000;0.000;2024-03-25T04:38:48;2.08;;;1.98;;
58992;SDS011;44782;0.000;0.000;2024-03-25T04:41:04;2.08;;;1.98;;
58992;SDS011;44782;0.000;0.000;2024-03-25T04:43:20;2.25;;;2.13;;
58992;SDS011;44782;0.000;0.000;2024-03-25T04:45:36;2.22;;;2.10;;
58992;SDS011;44782;0.000;0.000;2024-03-25T04:47:52;2.30;;;2.10;;
58992;SDS011;44782;0.000;0.000;2024-03-25T04:50:08;2.00;;;1.90;;
58992;SDS011;44782;0.000;0.000;2024-03-25T04:52:24;1.92;;;1.83;;
58992;SDS011;44782;0.000;0.000;2024-03-25T04:54:40;1.98;;;1.88;;
58992;SDS011;44782;0.000;0.000;2024-03-25T04:56:56;2.30;;;2.10;;
58992;SDS011;44782;0.000;0.000;2024-03-25T04:59:12;2.30;;;2.10;;
58992;SDS011;44782;0.000;0.000;2024-03-25T05:01:28;2.22;;;2.05;;
58992;SDS011;44782;0.000;0.000;2024-03-25T05:03:43;2.00;;;1.90;;
58992;SDS011;44782;0.000;0.000;2024-03-25T05:05:59;2.20;;;2.10;;
58992;SDS011;44782;0.000;0.000;2024-03-25T05:08:15;2.35;;;2.15;;
58992;SDS011;44782;0.000;0.000;2024-03-25T05:10:30;2.03;;;1.92;;
58992;SDS011;44782;0.000;0.000;2024-03-25T05:12:46;2.38;;;2.17;;
58992;SDS011;44782;0.000;0.000;2024-03-25T05:15:04;2.10;;;2.00;;
58992;SDS011;44782;0.000;0.000;2024-03-25T05:17:21;1.90;;;1.80;;
58992;SDS011;44782;0.000;0.000;2024-03-25T05:19:36;2.40;;;2.20;;
58992;SDS011;44782;0.000;0.000;2024-03-25T05:21:52;2.00;;;1.90;;
58992;SDS011;44782;0.000;0.000;2024-03-25T05:24:08;2.38;;;2.28;;
58992;SDS011;44782;0.000;0.000;2024-03-25T05:26:23;2.10;;;2.00;;
58992;SDS011;44782;0.000;0.000;2024-03-25T05:28:39;2.10;;;2.00;;
58992;SDS011;44782;0.000;0.000;2024-03-25T05:30:56;2.38;;;2.17;;
58992;SDS011;44782;0.000;0.000;2024-03-25T05:33:12;2.10;;;2.00;;
58992;SDS011;44782;0.000;0.000;2024-03-25T05:35:27;2.30;;;2.10;;
58992;SDS011;44782;0.000;0.000;2024-03-25T05:37:43;2.10;;;1.90;;
58992;SDS011;44782;0.000;0.000;2024-03-25T05:39:59;2.30;;;2.10;;
58992;SDS011;44782;0.000;0.000;2024-03-25T05:42:14;2.00;;;1.90;;
58992;SDS011;44782;0.000;0.000;2024-03-25T05:44:30;2.55;;;2.35;;
58992;SDS011;44782;0.000;0.000;2024-03-25T05:46:46;2.25;;;2.08;;
58992;SDS011;44782;0.000;0.000;2024-03-25T05:49:02;2.40;;;2.20;;
58992;SDS011;44782;0.000;0.000;2024-03-25T05:51:18;2.17;;;2.08;;
58992;SDS011;44782;0.000;0.000;2024-03-25T05:53:35;2.15;;;2.05;;
58992;SDS011;44782;0.000;0.000;2024-03-25T05:55:53;2.60;;;2.40;;
58992;SDS011;44782;0.000;0.000;2024-03-25T05:58:08;2.40;;;2.20;;
58992;SDS011;44782;0.000;0.000;2024-03-25T06:00:24;2.20;;;2.00;;
58992;SDS011;44782;0.000;0.000;2024-03-25T06:02:41;2.05;;;1.95;;
58992;SDS011;44782;0.000;0.000;2024-03-25T06:04:56;2.50;;;2.30;;
58992;SDS011;44782;0.000;0.000;2024-03-25T06:07:12;2.45;;;2.25;;
58992;SDS011;44782;0.000;0.000;2024-03-25T06:09:28;2.13;;;2.03;;
58992;SDS011;44782;0.000;0.000;2024-03-25T06:11:44;2.42;;;2.10;;
58992;SDS011;44782;0.000;0.000;2024-03-25T06:14:00;2.30;;;2.10;;
58992;SDS011;44782;0.000;0.000;2024-03-25T06:16:15;2.30;;;2.10;;
58992;SDS011;44782;0.000;0.000;2024-03-25T06:18:31;2.47;;;2.28;;
58992;SDS011;44782;0.000;0.000;2024-03-25T06:20:47;2.40;;;2.20;;
58992;SDS011;44782;0.000;0.000;2024-03-25T06:23:02;2.37;;;2.20;;
58992;SDS011;44782;0.000;0.000;2024-03-25T06:25:18;2.42;;;2.22;;
58992;SDS011;44782;0.000;0.000;2024-03-25T06:27:34;2.30;;;2.20;;
58992;SDS011;44782;0.000;0.000;2024-03-25T06:29:50;2.20;;;2.10;;
58992;SDS011;44782;0.000;0.000;2024-03-25T06:32:26;2.50;;;2.30;;
58992;SDS011;44782;0.000;0.000;2024-03-25T06:35:00;2.43;;;2.23;;
58992;SDS011;44782;0.000;0.000;2024-03-25T06:37:16;2.50;;;2.30;;
58992;SDS011;44782;0.000;0.000;2024-03-25T06:39:32;3.50;;;2.07;;
58992;SDS011;44782;0.000;0.000;2024-03-25T06:41:48;2.50;;;2.30;;
58992;SDS011;44782;0.000;0.000;2024-03-25T06:44:04;2.40;;;2.20;;
58992;SDS011;44782;0.000;0.000;2024-03-25T06:46:20;2.37;;;2.17;;
58992;SDS011;44782;0.000;0.000;2024-03-25T06:48:35;2.03;;;1.90;;
58992;SDS011;44782;0.000;0.000;2024-03-25T06:50:54;2.63;;;2.43;;
58992;SDS011;44782;0.000;0.000;2024-03-25T06:53:11;2.50;;;2.30;;
58992;SDS011;44782;0.000;0.000;2024-03-25T06:55:27;2.53;;;2.28;;
58992;SDS011;44782;0.000;0.000;2024-03-25T06:57:43;2.97;;;2.50;;
58992;SDS011;44782;0.000;0.000;2024-03-25T06:59:59;2.60;;;2.40;;
58992;SDS011;44782;0.000;0.000;2024-03-25T07:02:15;3.30;;;2.53;;
58992;SDS011;44782;0.000;0.000;2024-03-25T07:04:30;3.20;;;2.60;;
58992;SDS011;44782;0.000;0.000;2024-03-25T07:06:47;5.00;;;2.97;;
58992;SDS011;44782;0.000;0.000;2024-03-25T07:09:03;3.07;;;2.70;;
58992;SDS011;44782;0.000;0.000;2024-03-25T07:11:19;3.70;;;3.03;;
58992;SDS011;44782;0.000;0.000;2024-03-25T07:13:34;3.63;;;2.80;;
58992;SDS011;44782;0.000;0.000;2024-03-25T07:15:51;3.83;;;2.97;;
58992;SDS011;44782;0.000;0.000;2024-03-25T07:18:06;3.20;;;2.90;;
58992;SDS011;44782;0.000;0.000;2024-03-25T07:20:22;3.43;;;2.90;;
58992;SDS011;44782;0.000;0.000;2024-03-25T07:22:38;3.83;;;3.30;;
58992;SDS011;44782;0.000;0.000;2024-03-25T07:24:54;4.83;;;2.97;;
58992;SDS011;44782;0.000;0.000;2024-03-25T07:27:10;3.23;;;2.93;;
58992;SDS011;44782;0.000;0.000;2024-03-25T07:29:26;4.10;;;3.30;;
58992;SDS011;44782;0.000;0.000;2024-03-25T07:31:42;4.03;;;2.90;;
58992;SDS011;44782;0.000;0.000;2024-03-25T07:33:58;4.63;;;3.07;;
58992;SDS011;44782;0.000;0.000;2024-03-25T07:36:13;3.60;;;3.00;;
58992;SDS011;44782;0.000;0.000;2024-03-25T07:38:29;4.17;;;3.10;;
58992;SDS011;44782;0.000;0.000;2024-03-25T07:40:45;4.47;;;3.03;;
58992;SDS011;44782;0.000;0.000;2024-03-25T07:43:01;4.60;;;3.27;;
58992;SDS011;44782;0.000;0.000;2024-03-25T07:45:16;3.40;;;3.10;;
58992;SDS011;44782;0.000;0.000;2024-03-25T07:47:32;3.43;;;3.00;;
58992;SDS011;44782;0.000;0.000;2024-03-25T07:49:48;3.30;;;3.00;;
58992;SDS011;44782;0.000;0.000;2024-03-25T07:52:04;3.33;;;3.00;;
58992;SDS011;44782;0.000;0.000;2024-03-25T07:54:20;3.87;;;3.27;;
58992;SDS011;44782;0.000;0.000;2024-03-25T07:56:36;3.33;;;3.03;;
58992;SDS011;44782;0.000;0.000;2024-03-25T07:58:52;4.00;;;3.27;;
58992;SDS011;44782;0.000;0.000;2024-03-25T08:01:07;3.50;;;3.20;;
58992;SDS011;44782;0.000;0.000;2024-03-25T08:03:23;4.00;;;3.13;;
58992;SDS011;44782;0.000;0.000;2024-03-25T08:05:40;3.33;;;3.03;;
58992;SDS011;44782;0.000;0.000;2024-03-25T08:07:55;3.80;;;3.07;;
58992;SDS011;44782;0.000;0.000;2024-03-25T08:10:11;4.13;;;3.10;;
58992;SDS011;44782;0.000;0.000;2024-03-25T08:12:27;3.90;;;3.40;;
58992;SDS011;44782;0.000;0.000;2024-03-25T08:14:42;3.80;;;2.80;;
58992;SDS011;44782;0.000;0.000;2024-03-25T08:16:58;3.73;;;3.13;;
58992;SDS011;44782;0.000;0.000;2024-03-25T08:19:14;3.17;;;2.88;;
58992;SDS011;44782;0.000;0.000;2024-03-25T08:21:30;4.63;;;3.10;;
58992;SDS011;44782;0.000;0.000;2024-03-25T08:23:45;3.47;;;3.03;;
58992;SDS011;44782;0.000;0.000;2024-03-25T08:26:01;4.13;;;3.20;;
58992;SDS011;44782;0.000;0.000;2024-03-25T08:28:17;3.93;;;3.00;;
58992;SDS011;44782;0.000;0.000;2024-03-25T08:30:33;3.73;;;3.23;;
58992;SDS011;44782;0.000;0.000;2024-03-25T08:32:48;3.43;;;3.10;;
58992;SDS011;44782;0.000;0.000;2024-03-25T08:35:04;3.90;;;3.10;;
58992;SDS011;44782;0.000;0.000;2024-03-25T08:37:23;3.43;;;2.80;;
58992;SDS011;44782;0.000;0.000;2024-03-25T08:39:38;3.70;;;3.13;;
58992;SDS011;44782;0.000;0.000;2024-03-25T08:41:54;3.60;;;2.90;;
58992;SDS011;44782;0.000;0.000;2024-03-25T08:44:09;3.97;;;3.57;;
58992;SDS011;44782;0.000;0.000;2024-03-25T08:46:25;4.37;;;2.97;;
58992;SDS011;44782;0.000;0.000;2024-03-25T08:48:41;3.23;;;2.73;;
58992;SDS011;44782;0.000;0.000;2024-03-25T08:50:57;3.50;;;3.20;;
58992;SDS011;44782;0.000;0.000;2024-03-25T08:53:13;4.33;;;3.13;;
58992;SDS011;44782;0.000;0.000;2024-03-25T08:55:28;3.90;;;3.00;;
58992;SDS011;44782;0.000;0.000;2024-03-25T08:57:44;3.93;;;3.20;;
58992;SDS011;44782;0.000;0.000;2024-03-25T09:00:00;3.10;;;2.73;;
58992;SDS011;44782;0.000;0.000;2024-03-25T09:02:15;4.70;;;2.87;;
58992;SDS011;44782;0.000;0.000;2024-03-25T09:04:31;4.03;;;3.30;;
58992;SDS011;44782;0.000;0.000;2024-03-25T09:06:47;3.13;;;2.77;;
58992;SDS011;44782;0.000;0.000;2024-03-25T09:09:02;2.93;;;2.70;;
58992;SDS011;44782;0.000;0.000;2024-03-25T09:11:37;3.67;;;3.03;;
58992;SDS011;44782;0.000;0.000;2024-03-25T09:13:52;3.03;;;2.73;;
58992;SDS011;44782;0.000;0.000;2024-03-25T09:16:08;3.03;;;2.60;;
58992;SDS011;44782;0.000;0.000;2024-03-25T09:18:24;3.40;;;2.70;;
58992;SDS011;44782;0.000;0.000;2024-03-25T09:20:39;3.17;;;2.87;;
58992;SDS011;44782;0.000;0.000;2024-03-25T09:22:55;3.80;;;2.63;;
58992;SDS011;44782;0.000;0.000;2024-03-25T09:25:10;3.13;;;2.80;;
58992;SDS011;44782;0.000;0.000;2024-03-25T09:27:26;3.07;;;2.77;;
58992;SDS011;44782;0.000;0.000;2024-03-25T09:29:42;3.13;;;2.67;;
58992;SDS011;44782;0.000;0.000;2024-03-25T09:31:58;3.00;;;2.70;;
58992;SDS011;44782;0.000;0.000;2024-03-25T09:34:14;2.80;;;2.60;;
58992;SDS011;44782;0.000;0.000;2024-03-25T09:36:30;3.47;;;2.90;;
58992;SDS011;44782;0.000;0.000;2024-03-25T09:38:45;2.73;;;2.50;;
58992;SDS011;44782;0.000;0.000;2024-03-25T09:41:07;3.20;;;2.80;;
58992;SDS011;44782;0.000;0.000;2024-03-25T09:43:25;4.03;;;3.03;;
58992;SDS011;44782;0.000;0.000;2024-03-25T09:45:47;3.33;;;2.70;;
58992;SDS011;44782;0.000;0.000;2024-03-25T09:48:04;3.03;;;2.70;;
58992;SDS011;44782;0.000;0.000;2024-03-25T09:50:21;4.13;;;2.83;;
58992;SDS011;44782;0.000;0.000;2024-03-25T09:52:37;2.83;;;2.47;;
58992;SDS011;44782;0.000;0.000;2024-03-25T09:54:53;2.87;;;2.43;;
58992;SDS011;44782;0.000;0.000;2024-03-25T09:57:09;3.07;;;2.70;;
58992;SDS011;44782;0.000;0.000;2024-03-25T09:59:25;3.37;;;2.53;;
58992;SDS011;44782;0.000;0.000;2024-03-25T10:01:41;3.13;;;2.60;;
58992;SDS011;44782;0.000;0.000;2024-03-25T10:03:57;2.93;;;2.67;;
58992;SDS011;44782;0.000;0.000;2024-03-25T10:06:13;2.90;;;2.70;;
58992;SDS011;44782;0.000;0.000;2024-03-25T10:08:29;5.20;;;2.80;;
58992;SDS011;44782;0.000;0.000;2024-03-25T10:10:45;2.50;;;2.30;;
58992;SDS011;44782;0.000;0.000;2024-03-25T10:13:00;4.70;;;2.87;;
58992;SDS011;44782;0.000;0.000;2024-03-25T10:15:16;2.93;;;2.63;;
58992;SDS011;44782;0.000;0.000;2024-03-25T10:17:32;3.20;;;2.63;;
58992;SDS011;44782;0.000;0.000;2024-03-25T10:19:48;3.70;;;2.30;;
58992;SDS011;44782;0.000;0.000;2024-03-25T10:22:07;2.70;;;2.27;;
58992;SDS011;44782;0.000;0.000;2024-03-25T10:24:23;2.57;;;2.27;;
58992;SDS011;44782;0.000;0.000;2024-03-25T10:26:38;2.40;;;2.20;;
58992;SDS011;44782;0.000;0.000;2024-03-25T10:29:02;2.83;;;2.50;;
58992;SDS011;44782;0.000;0.000;2024-03-25T10:31:21;2.90;;;2.20;;
58992;SDS011;44782;0.000;0.000;2024-03-25T10:33:37;2.63;;;2.40;;
58992;SDS011;44782;0.000;0.000;2024-03-25T10:35:52;3.57;;;2.47;;
58992;SDS011;44782;0.000;0.000;2024-03-25T10:38:09;3.90;;;2.80;;
58992;SDS011;44782;0.000;0.000;2024-03-25T10:40:30;3.63;;;2.63;;
58992;SDS011;44782;0.000;0.000;2024-03-25T10:42:47;4.17;;;2.50;;
58992;SDS011;44782;0.000;0.000;2024-03-25T10:45:03;3.47;;;2.60;;
58992;SDS011;44782;0.000;0.000;2024-03-25T10:47:21;3.03;;;2.60;;
58992;SDS011;44782;0.000;0.000;2024-03-25T10:49:49;2.50;;;2.30;;
58992;SDS011;44782;0.000;0.000;2024-03-25T10:52:11;2.83;;;2.60;;
58992;SDS011;44782;0.000;0.000;2024-03-25T10:54:29;2.60;;;2.40;;
58992;SDS011;44782;0.000;0.000;2024-03-25T10:56:46;3.83;;;2.60;;
58992;SDS011;44782;0.000;0.000;2024-03-25T10:59:06;2.83;;;2.33;;
58992;SDS011;44782;0.000;0.000;2024-03-25T11:01:24;3.00;;;2.67;;
58992;SDS011;44782;0.000;0.000;2024-03-25T11:03:41;2.77;;;2.57;;
58992;SDS011;44782;0.000;0.000;2024-03-25T11:05:56;3.17;;;2.63;;
58992;SDS011;44782;0.000;0.000;2024-03-25T11:08:12;3.00;;;2.50;;
58992;SDS011;44782;0.000;0.000;2024-03-25T11:10:29;2.53;;;2.30;;
58992;SDS011;44782;0.000;0.000;2024-03-25T11:12:49;2.90;;;2.60;;
58992;SDS011;44782;0.000;0.000;2024-03-25T11:15:05;2.70;;;2.50;;
58992;SDS011;44782;0.000;0.000;2024-03-25T11:17:25;2.80;;;2.40;;
58992;SDS011;44782;0.000;0.000;2024-03-25T11:19:40;3.73;;;2.67;;
58992;SDS011;44782;0.000;0.000;2024-03-25T11:22:08;2.90;;;2.50;;
58992;SDS011;44782;0.000;0.000;2024-03-25T11:24:28;3.50;;;2.40;;
58992;SDS011;44782;0.000;0.000;2024-03-25T11:26:44;2.83;;;2.43;;
58992;SDS011;44782;0.000;0.000;2024-03-25T11:29:00;2.50;;;2.27;;
58992;SDS011;44782;0.000;0.000;2024-03-25T11:31:17;2.90;;;2.60;;
58992;SDS011;44782;0.000;0.000;2024-03-25T11:33:38;2.90;;;2.60;;
58992;SDS011;44782;0.000;0.000;2024-03-25T11:35:54;3.80;;;2.60;;
58992;SDS011;44782;0.000;0.000;2024-03-25T11:38:10;2.57;;;2.37;;
58992;SDS011;44782;0.000;0.000;2024-03-25T11:40:25;2.73;;;2.33;;
58992;SDS011;44782;0.000;0.000;2024-03-25T11:42:41;2.53;;;2.33;;
58992;SDS011;44782;0.000;0.000;2024-03-25T11:44:59;3.93;;;2.80;;
58992;SDS011;44782;0.000;0.000;2024-03-25T11:47:15;2.70;;;2.23;;
58992;SDS011;44782;0.000;0.000;2024-03-25T11:49:31;3.90;;;2.50;;
58992;SDS011;44782;0.000;0.000;2024-03-25T11:51:46;3.60;;;2.43;;
58992;SDS011;44782;0.000;0.000;2024-03-25T11:54:03;2.57;;;2.37;;
58992;SDS011;44782;0.000;0.000;2024-03-25T11:56:19;3.70;;;2.43;;
58992;SDS011;44782;0.000;0.000;2024-03-25T11:58:34;3.43;;;2.60;;
58992;SDS011;44782;0.000;0.000;2024-03-25T12:00:50;3.30;;;2.87;;
58992;SDS011;44782;0.000;0.000;2024-03-25T12:03:06;4.23;;;2.63;;
58992;SDS011;44782;0.000;0.000;2024-03-25T12:05:23;3.10;;;2.40;;
58992;SDS011;44782;0.000;0.000;2024-03-25T12:07:38;3.93;;;2.80;;
58992;SDS011;44782;0.000;0.000;2024-03-25T12:09:54;4.93;;;2.60;;
58992;SDS011;44782;0.000;0.000;2024-03-25T12:12:28;2.60;;;2.30;;
58992;SDS011;44782;0.000;0.000;2024-03-25T12:14:44;4.43;;;2.30;;
58992;SDS011;44782;0.000;0.000;2024-03-25T12:17:00;3.13;;;2.40;;
58992;SDS011;44782;0.000;0.000;2024-03-25T12:19:17;2.60;;;2.10;;
58992;SDS011;44782;0.000;0.000;2024-03-25T12:21:33;3.67;;;2.10;;
58992;SDS011;44782;0.000;0.000;2024-03-25T12:23:49;2.73;;;2.00;;
58992;SDS011;44782;0.000;0.000;2024-03-25T12:26:04;2.43;;;2.10;;
58992;SDS011;44782;0.000;0.000;2024-03-25T12:28:20;2.47;;;2.17;;
58992;SDS011;44782;0.000;0.000;2024-03-25T12:30:49;3.30;;;2.30;;
58992;SDS011;44782;0.000;0.000;2024-03-25T12:33:12;3.17;;;2.37;;
58992;SDS011;44782;0.000;0.000;2024-03-25T12:35:27;3.70;;;2.30;;
58992;SDS011;44782;0.000;0.000;2024-03-25T12:37:46;2.47;;;2.00;;
58992;SDS011;44782;0.000;0.000;2024-03-25T12:40:03;2.90;;;2.30;;
58992;SDS011;44782;0.000;0.000;2024-03-25T12:42:21;2.83;;;2.10;;
58992;SDS011;44782;0.000;0.000;2024-03-25T12:44:37;2.63;;;2.30;;
58992;SDS011;44782;0.000;0.000;2024-03-25T12:46:52;2.70;;;2.13;;
58992;SDS011;44782;0.000;0.000;2024-03-25T12:49:12;2.63;;;2.20;;
58992;SDS011;44782;0.000;0.000;2024-03-25T12:51:28;2.10;;;1.90;;
58992;SDS011;44782;0.000;0.000;2024-03-25T12:53:44;2.40;;;1.90;;
58992;SDS011;44782;0.000;0.000;2024-03-25T12:55:59;2.10;;;1.90;;
58992;SDS011;44782;0.000;0.000;2024-03-25T12:58:15;2.07;;;1.87;;
58992;SDS011;44782;0.000;0.000;2024-03-25T13:00:31;2.73;;;2.20;;
58992;SDS011;44782;0.000;0.000;2024-03-25T13:02:46;2.23;;;2.03;;
58992;SDS011;44782;0.000;0.000;2024-03-25T13:05:02;3.20;;;1.97;;
58992;SDS011;44782;0.000;0.000;2024-03-25T13:07:19;2.80;;;2.07;;
58992;SDS011;44782;0.000;0.000;2024-03-25T13:09:35;2.27;;;2.07;;
58992;SDS011;44782;0.000;0.000;2024-03-25T13:11:51;2.10;;;1.90;;
58992;SDS011;44782;0.000;0.000;2024-03-25T13:14:06;2.40;;;2.10;;
58992;SDS011;44782;0.000;0.000;2024-03-25T13:16:22;2.70;;;2.10;;
58992;SDS011;44782;0.000;0.000;2024-03-25T13:18:37;2.10;;;1.80;;
58992;SDS011;44782;0.000;0.000;2024-03-25T13:20:53;2.17;;;1.97;;
58992;SDS011;44782;0.000;0.000;2024-03-25T13:23:09;1.70;;;1.60;;
58992;SDS011;44782;0.000;0.000;2024-03-25T13:25:24;1.90;;;1.80;;
58992;SDS011;44782;0.000;0.000;2024-03-25T13:27:42;2.17;;;1.90;;
58992;SDS011;44782;0.000;0.000;2024-03-25T13:29:57;2.20;;;1.90;;
58992;SDS011;44782;0.000;0.000;2024-03-25T13:32:13;2.73;;;2.13;;
58992;SDS011;44782;0.000;0.000;2024-03-25T13:34:29;2.67;;;2.10;;
58992;SDS011;44782;0.000;0.000;2024-03-25T13:36:45;1.97;;;1.80;;
58992;SDS011;44782;0.000;0.000;2024-03-25T13:39:00;2.33;;;1.70;;
58992;SDS011;44782;0.000;0.000;2024-03-25T13:41:19;1.90;;;1.77;;
58992;SDS011;44782;0.000;0.000;2024-03-25T13:43:42;2.10;;;1.90;;
58992;SDS011;44782;0.000;0.000;2024-03-25T13:45:58;2.20;;;1.90;;
58992;SDS011;44782;0.000;0.000;2024-03-25T13:48:14;1.70;;;1.60;;
58992;SDS011;44782;0.000;0.000;2024-03-25T13:50:31;1.93;;;1.73;;
58992;SDS011;44782;0.000;0.000;2024-03-25T13:52:46;1.90;;;1.70;;
58992;SDS011;44782;0.000;0.000;2024-03-25T13:55:02;2.17;;;1.73;;